Aérodrome :
LOGIN :

S'inscrire | Disclaimer

   EN    FR    IT 

 










Légende :    VFR   VFR Marginal   IFR   IFR Intensif   IFR Très Intensif
Visi : 
Plafond : 
>= 8 km
>= 3000ft
5 à 8 km
1000 à 3000 ft
1500m à 5 km
500 à 1000 ft
800 à 1500m
200 à 500 ft
< 800m
< 200 ft
Symboles :   Orages  Brouillard  Fortes neiges  Fortes précipitations  Vent > 20 kt
SIGMETs :   Divers  Orages  Givrage  Turbulence  Onde Orograph.  Cendres Volcan.







- Altitude de l'aérodrome : 1115 ft
- Code IATA : GRZ


LOWG - Graz

DERNIER METAR :
  • 270520Z 16002KT 9999 -RA FEW030 BKN070 OVC090 15/13 Q1012 TEMPO FM0550 RA

METARs EXPIRÉS :
  • 270450Z 36002KT 9999 FEW030 BKN075 OVC090 14/12 Q1012 NOSIG
  • 270420Z VRB02KT 9999 FEW030 BKN080 OVC090 14/12 Q1012 NOSIG
  • 270350Z VRB01KT 9999 FEW050 SCT080 OVC090 14/11 Q1012 NOSIG
  • 270320Z AUTO VRB01KT 9999 FEW070 BKN090 14/12 Q1012
  • 270250Z AUTO 20003KT 9999 -SHRA FEW060 SCT100 BKN110 14/11 Q1012

TAF TAF LOWG
Valide du 27 à 06h jusqu'au 28 à 06h UTC


270515Z 2706/2806 VRB02KT 9999 FEW030 BKN050 OVC070 TX19/2712Z TN13/2803Z
TEMPO 2706/2720 16005KT -RA SCT020 BKN040
PROB40
TEMPO 2706/2716 RA FEW012 BKN025
BECMG 2802/2804 2000 BR BKN003
Pas de NOTAMs connus pour ce terrain.



MET'MAP, la Météo Aéronautique d'un coup d'oeil ! - Copyright ORBIFLY Décembre 2007 - Disclaimer

ORBIFLY MET'MAP TEAM :

Programmation & Développement : Alexandra Zaïnal
Conception & Développement : Baudouin d'Aumeries
Co-Programmation & Développement : Marc-Olivier Méhu
Soutien technique & logistique : Manuel Goepfert

Contact : metmap@orbifly.com




SOURCES & CREDITS :

   NOAA